sensor_id;sensor_type;location;lat;lon;timestamp;pressure;altitude;pressure_sealevel;temperature;humidity
12785;BME280;6456;42.680;23.260;2023-09-19T00:01:06;94956.34;;;16.62;100.00
12785;BME280;6456;42.680;23.260;2023-09-19T00:03:34;94995.59;;;16.88;100.00
12785;BME280;6456;42.680;23.260;2023-09-19T00:06:04;95035.53;;;17.10;100.00
12785;BME280;6456;42.680;23.260;2023-09-19T00:08:33;94992.94;;;16.88;100.00
12785;BME280;6456;42.680;23.260;2023-09-19T00:11:00;95001.94;;;16.87;100.00
12785;BME280;6456;42.680;23.260;2023-09-19T00:13:31;95049.94;;;17.14;100.00
12785;BME280;6456;42.680;23.260;2023-09-19T00:15:59;95011.91;;;16.97;100.00
12785;BME280;6456;42.680;23.260;2023-09-19T00:18:26;95034.31;;;17.17;100.00
12785;BME280;6456;42.680;23.260;2023-09-19T00:20:57;95030.47;;;17.08;100.00
12785;BME280;6456;42.680;23.260;2023-09-19T00:23:26;95042.84;;;17.19;100.00
12785;BME280;6456;42.680;23.260;2023-09-19T00:25:53;95031.97;;;17.21;100.00
12785;BME280;6456;42.680;23.260;2023-09-19T00:28:23;94979.31;;;16.85;100.00
12785;BME280;6456;42.680;23.260;2023-09-19T00:30:51;95029.28;;;17.21;100.00
12785;BME280;6456;42.680;23.260;2023-09-19T00:33:20;94941.69;;;16.59;100.00
12785;BME280;6456;42.680;23.260;2023-09-19T00:35:48;94951.69;;;16.69;100.00
12785;BME280;6456;42.680;23.260;2023-09-19T00:38:15;94979.38;;;16.90;100.00
12785;BME280;6456;42.680;23.260;2023-09-19T00:40:45;94995.41;;;16.95;100.00
12785;BME280;6456;42.680;23.260;2023-09-19T00:43:13;95030.78;;;17.12;100.00
12785;BME280;6456;42.680;23.260;2023-09-19T00:45:43;94996.94;;;16.91;100.00
12785;BME280;6456;42.680;23.260;2023-09-19T00:48:11;94948.63;;;16.60;100.00
12785;BME280;6456;42.680;23.260;2023-09-19T00:50:41;94933.28;;;16.34;100.00
12785;BME280;6456;42.680;23.260;2023-09-19T00:53:09;95039.47;;;16.91;100.00
12785;BME280;6456;42.680;23.260;2023-09-19T00:55:40;95016.25;;;16.70;100.00
12785;BME280;6456;42.680;23.260;2023-09-19T00:58:10;95017.22;;;16.63;100.00
12785;BME280;6456;42.680;23.260;2023-09-19T01:00:37;95005.47;;;16.59;100.00
12785;BME280;6456;42.680;23.260;2023-09-19T01:03:07;95027.38;;;16.66;100.00
12785;BME280;6456;42.680;23.260;2023-09-19T01:05:35;95017.47;;;16.62;100.00
12785;BME280;6456;42.680;23.260;2023-09-19T01:08:02;95023.66;;;16.67;100.00
12785;BME280;6456;42.680;23.260;2023-09-19T01:10:30;95001.56;;;16.50;100.00
12785;BME280;6456;42.680;23.260;2023-09-19T01:13:03;95019.69;;;16.53;100.00
12785;BME280;6456;42.680;23.260;2023-09-19T01:15:40;95020.28;;;16.55;100.00
12785;BME280;6456;42.680;23.260;2023-09-19T01:18:20;94980.25;;;16.17;100.00
12785;BME280;6456;42.680;23.260;2023-09-19T01:20:55;94954.56;;;16.06;100.00
12785;BME280;6456;42.680;23.260;2023-09-19T01:23:36;94976.22;;;16.15;100.00
12785;BME280;6456;42.680;23.260;2023-09-19T01:26:24;94995.09;;;16.30;100.00
12785;BME280;6456;42.680;23.260;2023-09-19T01:29:13;95037.13;;;16.49;100.00
12785;BME280;6456;42.680;23.260;2023-09-19T01:31:47;94993.72;;;16.27;100.00
12785;BME280;6456;42.680;23.260;2023-09-19T01:34:16;95037.81;;;16.56;100.00
12785;BME280;6456;42.680;23.260;2023-09-19T01:36:43;95010.94;;;16.41;100.00
12785;BME280;6456;42.680;23.260;2023-09-19T01:39:12;95003.44;;;16.38;100.00
12785;BME280;6456;42.680;23.260;2023-09-19T01:41:54;95009.25;;;16.35;100.00
12785;BME280;6456;42.680;23.260;2023-09-19T01:44:31;95026.16;;;16.46;100.00
12785;BME280;6456;42.680;23.260;2023-09-19T01:47:04;95031.38;;;16.41;100.00
12785;BME280;6456;42.680;23.260;2023-09-19T01:49:42;95002.88;;;16.20;100.00
12785;BME280;6456;42.680;23.260;2023-09-19T01:52:12;95007.84;;;16.16;100.00
12785;BME280;6456;42.680;23.260;2023-09-19T01:54:46;95027.41;;;16.27;100.00
12785;BME280;6456;42.680;23.260;2023-09-19T01:57:20;95030.63;;;16.29;100.00
12785;BME280;6456;42.680;23.260;2023-09-19T01:59:53;95025.94;;;16.19;100.00
12785;BME280;6456;42.680;23.260;2023-09-19T02:02:24;95008.13;;;16.03;100.00
12785;BME280;6456;42.680;23.260;2023-09-19T02:04:55;95017.31;;;16.12;100.00
12785;BME280;6456;42.680;23.260;2023-09-19T02:07:22;95032.97;;;16.25;100.00
12785;BME280;6456;42.680;23.260;2023-09-19T02:09:49;95014.09;;;16.10;100.00
12785;BME280;6456;42.680;23.260;2023-09-19T02:12:16;94966.41;;;15.87;100.00
12785;BME280;6456;42.680;23.260;2023-09-19T02:14:43;94985.75;;;15.99;100.00
12785;BME280;6456;42.680;23.260;2023-09-19T02:17:10;94983.34;;;15.97;100.00
12785;BME280;6456;42.680;23.260;2023-09-19T02:19:39;94993.81;;;16.04;100.00
12785;BME280;6456;42.680;23.260;2023-09-19T02:22:07;95007.28;;;16.14;100.00
12785;BME280;6456;42.680;23.260;2023-09-19T02:24:36;94992.53;;;16.07;100.00
12785;BME280;6456;42.680;23.260;2023-09-19T02:27:04;95013.44;;;16.31;100.00
12785;BME280;6456;42.680;23.260;2023-09-19T02:29:31;94974.09;;;16.00;100.00
12785;BME280;6456;42.680;23.260;2023-09-19T02:31:59;94934.22;;;15.83;100.00
12785;BME280;6456;42.680;23.260;2023-09-19T02:34:27;94957.59;;;15.98;100.00
12785;BME280;6456;42.680;23.260;2023-09-19T02:36:55;94967.16;;;15.99;100.00
12785;BME280;6456;42.680;23.260;2023-09-19T02:39:22;94954.97;;;15.98;100.00
12785;BME280;6456;42.680;23.260;2023-09-19T02:41:50;94977.03;;;16.15;100.00
12785;BME280;6456;42.680;23.260;2023-09-19T02:44:17;94967.81;;;16.06;100.00
12785;BME280;6456;42.680;23.260;2023-09-19T02:46:45;94954.84;;;15.93;100.00
12785;BME280;6456;42.680;23.260;2023-09-19T02:49:12;94902.91;;;15.69;100.00
12785;BME280;6456;42.680;23.260;2023-09-19T02:51:39;94971.63;;;16.10;100.00
12785;BME280;6456;42.680;23.260;2023-09-19T02:54:08;94964.38;;;16.06;100.00
12785;BME280;6456;42.680;23.260;2023-09-19T02:56:35;94950.13;;;15.95;100.00
12785;BME280;6456;42.680;23.260;2023-09-19T02:59:03;94994.75;;;16.26;100.00
12785;BME280;6456;42.680;23.260;2023-09-19T03:01:31;94902.59;;;15.65;100.00
12785;BME280;6456;42.680;23.260;2023-09-19T03:03:59;94978.31;;;16.13;100.00
12785;BME280;6456;42.680;23.260;2023-09-19T03:06:26;94950.22;;;16.00;100.00
12785;BME280;6456;42.680;23.260;2023-09-19T03:08:53;94954.47;;;16.01;100.00
12785;BME280;6456;42.680;23.260;2023-09-19T03:11:23;94909.19;;;15.63;100.00
12785;BME280;6456;42.680;23.260;2023-09-19T03:13:53;94969.34;;;16.02;100.00
12785;BME280;6456;42.680;23.260;2023-09-19T03:16:21;94940.34;;;15.84;100.00
12785;BME280;6456;42.680;23.260;2023-09-19T03:18:48;94963.59;;;15.93;100.00
12785;BME280;6456;42.680;23.260;2023-09-19T03:21:16;94947.50;;;15.83;100.00
12785;BME280;6456;42.680;23.260;2023-09-19T03:23:44;94987.78;;;16.09;100.00
12785;BME280;6456;42.680;23.260;2023-09-19T03:26:12;94955.22;;;15.85;100.00
12785;BME280;6456;42.680;23.260;2023-09-19T03:28:43;94964.66;;;15.92;100.00
12785;BME280;6456;42.680;23.260;2023-09-19T03:31:11;94974.56;;;15.97;100.00
12785;BME280;6456;42.680;23.260;2023-09-19T03:33:39;94978.59;;;15.99;100.00
12785;BME280;6456;42.680;23.260;2023-09-19T03:36:06;95006.03;;;16.05;100.00
12785;BME280;6456;42.680;23.260;2023-09-19T03:38:34;94928.53;;;15.63;100.00
12785;BME280;6456;42.680;23.260;2023-09-19T03:41:01;94897.47;;;15.35;100.00
12785;BME280;6456;42.680;23.260;2023-09-19T03:43:28;94949.19;;;15.61;100.00
12785;BME280;6456;42.680;23.260;2023-09-19T03:46:01;94963.72;;;15.70;100.00
12785;BME280;6456;42.680;23.260;2023-09-19T03:48:29;94959.19;;;15.71;100.00
12785;BME280;6456;42.680;23.260;2023-09-19T03:50:56;95017.97;;;15.91;100.00
12785;BME280;6456;42.680;23.260;2023-09-19T03:53:23;94985.50;;;15.72;100.00
12785;BME280;6456;42.680;23.260;2023-09-19T03:55:50;95020.03;;;15.89;100.00
12785;BME280;6456;42.680;23.260;2023-09-19T03:58:17;95007.03;;;15.87;100.00
12785;BME280;6456;42.680;23.260;2023-09-19T04:00:44;94982.59;;;15.74;100.00
12785;BME280;6456;42.680;23.260;2023-09-19T04:03:12;94975.72;;;15.61;100.00
12785;BME280;6456;42.680;23.260;2023-09-19T04:05:45;95020.03;;;15.89;100.00
12785;BME280;6456;42.680;23.260;2023-09-19T04:08:12;94951.06;;;15.49;100.00
12785;BME280;6456;42.680;23.260;2023-09-19T04:10:42;94962.94;;;15.47;100.00
12785;BME280;6456;42.680;23.260;2023-09-19T04:13:09;94977.13;;;15.52;100.00
12785;BME280;6456;42.680;23.260;2023-09-19T04:15:36;94992.28;;;15.68;100.00
12785;BME280;6456;42.680;23.260;2023-09-19T04:18:03;94960.84;;;15.49;100.00
12785;BME280;6456;42.680;23.260;2023-09-19T04:20:32;95015.31;;;15.91;100.00
12785;BME280;6456;42.680;23.260;2023-09-19T04:22:59;95006.22;;;15.87;100.00
12785;BME280;6456;42.680;23.260;2023-09-19T04:25:26;95011.47;;;15.98;100.00
12785;BME280;6456;42.680;23.260;2023-09-19T04:27:53;95000.75;;;15.93;100.00
12785;BME280;6456;42.680;23.260;2023-09-19T04:30:20;94960.94;;;15.65;100.00
12785;BME280;6456;42.680;23.260;2023-09-19T04:32:47;95010.06;;;16.08;100.00
12785;BME280;6456;42.680;23.260;2023-09-19T04:35:16;95008.53;;;16.12;100.00
12785;BME280;6456;42.680;23.260;2023-09-19T04:37:44;94987.78;;;16.09;100.00
12785;BME280;6456;42.680;23.260;2023-09-19T04:40:12;95006.81;;;16.17;100.00
12785;BME280;6456;42.680;23.260;2023-09-19T04:42:42;94985.38;;;16.07;100.00
12785;BME280;6456;42.680;23.260;2023-09-19T04:45:10;95003.78;;;16.25;100.00
12785;BME280;6456;42.680;23.260;2023-09-19T04:47:37;94965.88;;;16.01;100.00
12785;BME280;6456;42.680;23.260;2023-09-19T04:50:06;94994.75;;;16.26;100.00
12785;BME280;6456;42.680;23.260;2023-09-19T04:52:39;94989.44;;;16.26;100.00
12785;BME280;6456;42.680;23.260;2023-09-19T04:55:09;95001.13;;;16.42;100.00
12785;BME280;6456;42.680;23.260;2023-09-19T04:57:43;95000.41;;;16.46;100.00
12785;BME280;6456;42.680;23.260;2023-09-19T05:00:12;94998.69;;;16.52;100.00
12785;BME280;6456;42.680;23.260;2023-09-19T05:02:40;94996.19;;;16.62;100.00
12785;BME280;6456;42.680;23.260;2023-09-19T05:05:07;94969.47;;;16.52;100.00
12785;BME280;6456;42.680;23.260;2023-09-19T05:07:35;94987.50;;;16.66;100.00
12785;BME280;6456;42.680;23.260;2023-09-19T05:10:03;95007.66;;;16.79;100.00
12785;BME280;6456;42.680;23.260;2023-09-19T05:12:34;95004.19;;;16.79;100.00
12785;BME280;6456;42.680;23.260;2023-09-19T05:15:01;95002.03;;;16.92;100.00
12785;BME280;6456;42.680;23.260;2023-09-19T05:17:29;95001.63;;;17.00;100.00
12785;BME280;6456;42.680;23.260;2023-09-19T05:19:56;95004.66;;;17.09;100.00
12785;BME280;6456;42.680;23.260;2023-09-19T05:22:23;94980.03;;;16.97;100.00
12785;BME280;6456;42.680;23.260;2023-09-19T05:24:51;94998.72;;;17.18;100.00
12785;BME280;6456;42.680;23.260;2023-09-19T05:27:18;94995.78;;;17.20;100.00
12785;BME280;6456;42.680;23.260;2023-09-19T05:29:47;95003.03;;;17.24;100.00
12785;BME280;6456;42.680;23.260;2023-09-19T05:32:16;95001.25;;;17.30;100.00
12785;BME280;6456;42.680;23.260;2023-09-19T05:34:45;94993.84;;;17.32;100.00
12785;BME280;6456;42.680;23.260;2023-09-19T05:37:12;94988.59;;;17.37;100.00
12785;BME280;6456;42.680;23.260;2023-09-19T05:39:39;94952.38;;;17.14;100.00
12785;BME280;6456;42.680;23.260;2023-09-19T05:42:06;94987.28;;;17.40;100.00
12785;BME280;6456;42.680;23.260;2023-09-19T05:44:33;94984.22;;;17.48;100.00
12785;BME280;6456;42.680;23.260;2023-09-19T05:47:03;94925.53;;;17.16;100.00
12785;BME280;6456;42.680;23.260;2023-09-19T05:49:30;94987.66;;;17.65;100.00
12785;BME280;6456;42.680;23.260;2023-09-19T05:51:57;94992.63;;;17.78;100.00
12785;BME280;6456;42.680;23.260;2023-09-19T05:54:24;94962.16;;;17.69;100.00
12785;BME280;6456;42.680;23.260;2023-09-19T05:56:50;94975.91;;;17.82;100.00
12785;BME280;6456;42.680;23.260;2023-09-19T05:59:18;94981.88;;;17.94;100.00
12785;BME280;6456;42.680;23.260;2023-09-19T06:01:45;94964.00;;;17.90;100.00
12785;BME280;6456;42.680;23.260;2023-09-19T06:04:14;94950.84;;;17.78;100.00
12785;BME280;6456;42.680;23.260;2023-09-19T06:06:40;94968.63;;;18.00;100.00
12785;BME280;6456;42.680;23.260;2023-09-19T06:09:08;94970.75;;;17.98;100.00
12785;BME280;6456;42.680;23.260;2023-09-19T06:11:35;94967.59;;;18.01;100.00
12785;BME280;6456;42.680;23.260;2023-09-19T06:14:02;94959.13;;;18.04;100.00
12785;BME280;6456;42.680;23.260;2023-09-19T06:16:29;94962.53;;;18.26;100.00
12785;BME280;6456;42.680;23.260;2023-09-19T06:18:57;94964.13;;;18.27;100.00
12785;BME280;6456;42.680;23.260;2023-09-19T06:21:26;94974.78;;;18.27;100.00
12785;BME280;6456;42.680;23.260;2023-09-19T06:23:53;94965.19;;;18.26;100.00
12785;BME280;6456;42.680;23.260;2023-09-19T06:26:20;94950.16;;;18.15;100.00
12785;BME280;6456;42.680;23.260;2023-09-19T06:28:48;94959.94;;;18.31;100.00
12785;BME280;6456;42.680;23.260;2023-09-19T06:31:16;94966.84;;;18.32;100.00
12785;BME280;6456;42.680;23.260;2023-09-19T06:33:43;94950.34;;;18.35;100.00
12785;BME280;6456;42.680;23.260;2023-09-19T06:36:10;94963.63;;;18.56;100.00
12785;BME280;6456;42.680;23.260;2023-09-19T06:38:38;94960.78;;;18.63;100.00
12785;BME280;6456;42.680;23.260;2023-09-19T06:41:07;94954.84;;;18.56;100.00
12785;BME280;6456;42.680;23.260;2023-09-19T06:43:34;94962.72;;;18.73;100.00
12785;BME280;6456;42.680;23.260;2023-09-19T06:46:01;94955.66;;;18.88;100.00
12785;BME280;6456;42.680;23.260;2023-09-19T06:48:30;94939.34;;;18.85;100.00
12785;BME280;6456;42.680;23.260;2023-09-19T06:50:59;94976.44;;;19.23;100.00
12785;BME280;6456;42.680;23.260;2023-09-19T06:53:28;94973.88;;;19.38;100.00
12785;BME280;6456;42.680;23.260;2023-09-19T06:55:58;94947.34;;;19.27;100.00
12785;BME280;6456;42.680;23.260;2023-09-19T06:58:26;94973.31;;;19.36;100.00
12785;BME280;6456;42.680;23.260;2023-09-19T07:00:52;94966.34;;;19.30;100.00
12785;BME280;6456;42.680;23.260;2023-09-19T07:03:20;94982.16;;;19.42;100.00
12785;BME280;6456;42.680;23.260;2023-09-19T07:05:53;94965.38;;;19.41;100.00
12785;BME280;6456;42.680;23.260;2023-09-19T07:08:21;94976.94;;;19.62;100.00
12785;BME280;6456;42.680;23.260;2023-09-19T07:10:48;94940.13;;;19.64;100.00
12785;BME280;6456;42.680;23.260;2023-09-19T07:13:21;94935.41;;;19.86;100.00
12785;BME280;6456;42.680;23.260;2023-09-19T07:15:47;94981.09;;;19.95;100.00
12785;BME280;6456;42.680;23.260;2023-09-19T07:18:16;94979.25;;;20.05;100.00
12785;BME280;6456;42.680;23.260;2023-09-19T07:20:43;94974.78;;;20.21;100.00
12785;BME280;6456;42.680;23.260;2023-09-19T07:23:14;94962.72;;;20.13;100.00
12785;BME280;6456;42.680;23.260;2023-09-19T07:25:42;94978.25;;;20.21;100.00
12785;BME280;6456;42.680;23.260;2023-09-19T07:28:09;94981.50;;;20.28;100.00
12785;BME280;6456;42.680;23.260;2023-09-19T07:30:37;94980.44;;;20.39;100.00
12785;BME280;6456;42.680;23.260;2023-09-19T07:33:05;94983.69;;;20.47;100.00
12785;BME280;6456;42.680;23.260;2023-09-19T07:35:32;94980.47;;;20.55;100.00
12785;BME280;6456;42.680;23.260;2023-09-19T07:37:59;94964.69;;;20.48;100.00
12785;BME280;6456;42.680;23.260;2023-09-19T07:40:28;94950.53;;;20.48;100.00
12785;BME280;6456;42.680;23.260;2023-09-19T07:42:55;94958.53;;;20.48;100.00
12785;BME280;6456;42.680;23.260;2023-09-19T07:45:22;94985.84;;;20.75;100.00
12785;BME280;6456;42.680;23.260;2023-09-19T07:47:52;94978.09;;;20.73;100.00
12785;BME280;6456;42.680;23.260;2023-09-19T07:50:19;94979.16;;;20.67;100.00
12785;BME280;6456;42.680;23.260;2023-09-19T07:52:46;94978.84;;;20.33;100.00
12785;BME280;6456;42.680;23.260;2023-09-19T07:55:13;94968.69;;;20.30;100.00
12785;BME280;6456;42.680;23.260;2023-09-19T07:57:42;94987.91;;;20.32;100.00
12785;BME280;6456;42.680;23.260;2023-09-19T08:00:10;94982.06;;;20.40;100.00
12785;BME280;6456;42.680;23.260;2023-09-19T08:02:38;94962.28;;;20.36;100.00
12785;BME280;6456;42.680;23.260;2023-09-19T08:05:07;94969.78;;;20.50;100.00
12785;BME280;6456;42.680;23.260;2023-09-19T08:07:35;94910.69;;;20.26;100.00
12785;BME280;6456;42.680;23.260;2023-09-19T08:10:03;94964.97;;;20.77;100.00
12785;BME280;6456;42.680;23.260;2023-09-19T08:12:33;94958.03;;;20.91;100.00
12785;BME280;6456;42.680;23.260;2023-09-19T08:15:01;94957.22;;;21.00;100.00
12785;BME280;6456;42.680;23.260;2023-09-19T08:17:33;94957.50;;;21.04;100.00
12785;BME280;6456;42.680;23.260;2023-09-19T08:20:00;94938.78;;;20.99;100.00
12785;BME280;6456;42.680;23.260;2023-09-19T08:22:32;94954.28;;;21.17;100.00
12785;BME280;6456;42.680;23.260;2023-09-19T08:25:00;94952.69;;;21.31;100.00
12785;BME280;6456;42.680;23.260;2023-09-19T08:27:30;94957.75;;;21.38;99.79
12785;BME280;6456;42.680;23.260;2023-09-19T08:29:57;94957.22;;;21.26;99.29
12785;BME280;6456;42.680;23.260;2023-09-19T08:32:24;94956.69;;;21.34;98.88
12785;BME280;6456;42.680;23.260;2023-09-19T08:34:52;94969.53;;;21.47;98.58
12785;BME280;6456;42.680;23.260;2023-09-19T08:37:19;94939.28;;;21.36;98.00
12785;BME280;6456;42.680;23.260;2023-09-19T08:39:48;94949.63;;;21.68;98.34
12785;BME280;6456;42.680;23.260;2023-09-19T08:42:15;94958.41;;;21.84;96.19
12785;BME280;6456;42.680;23.260;2023-09-19T08:44:43;94911.69;;;21.41;98.86
12785;BME280;6456;42.680;23.260;2023-09-19T08:47:11;94926.06;;;21.65;96.59
12785;BME280;6456;42.680;23.260;2023-09-19T08:49:44;94935.88;;;21.85;95.69
12785;BME280;6456;42.680;23.260;2023-09-19T08:52:20;94946.03;;;21.98;96.21
12785;BME280;6456;42.680;23.260;2023-09-19T08:54:52;94917.47;;;21.73;94.09
12785;BME280;6456;42.680;23.260;2023-09-19T08:57:22;94942.91;;;21.86;94.54
12785;BME280;6456;42.680;23.260;2023-09-19T08:59:51;94949.88;;;21.77;95.36
12785;BME280;6456;42.680;23.260;2023-09-19T09:02:20;94931.91;;;21.77;95.76
12785;BME280;6456;42.680;23.260;2023-09-19T09:04:49;94938.00;;;21.98;95.37
12785;BME280;6456;42.680;23.260;2023-09-19T09:07:18;94892.03;;;21.70;94.53
12785;BME280;6456;42.680;23.260;2023-09-19T09:09:46;94936.84;;;22.19;93.29
12785;BME280;6456;42.680;23.260;2023-09-19T09:12:15;94931.22;;;22.15;93.12
12785;BME280;6456;42.680;23.260;2023-09-19T09:14:44;94883.56;;;22.07;94.46
12785;BME280;6456;42.680;23.260;2023-09-19T09:17:13;94922.63;;;22.57;93.59
12785;BME280;6456;42.680;23.260;2023-09-19T09:19:40;94918.75;;;22.78;91.91
12785;BME280;6456;42.680;23.260;2023-09-19T09:22:09;94915.44;;;22.91;89.96
12785;BME280;6456;42.680;23.260;2023-09-19T09:24:37;94910.66;;;22.83;89.14
12785;BME280;6456;42.680;23.260;2023-09-19T09:27:06;94886.09;;;22.71;88.08
12785;BME280;6456;42.680;23.260;2023-09-19T09:29:44;94894.22;;;22.56;89.45
12785;BME280;6456;42.680;23.260;2023-09-19T09:32:22;94910.72;;;22.78;89.02
12785;BME280;6456;42.680;23.260;2023-09-19T09:34:51;94905.00;;;22.85;89.37
12785;BME280;6456;42.680;23.260;2023-09-19T09:37:19;94887.75;;;22.96;88.77
12785;BME280;6456;42.680;23.260;2023-09-19T09:39:50;94884.84;;;22.87;88.79
12785;BME280;6456;42.680;23.260;2023-09-19T09:42:32;94904.69;;;23.20;87.69
12785;BME280;6456;42.680;23.260;2023-09-19T09:45:16;94895.88;;;23.43;86.88
12785;BME280;6456;42.680;23.260;2023-09-19T09:47:44;94835.34;;;23.04;85.83
12785;BME280;6456;42.680;23.260;2023-09-19T09:50:26;94841.44;;;23.33;85.81
12785;BME280;6456;42.680;23.260;2023-09-19T09:53:19;94894.72;;;23.73;85.81
12785;BME280;6456;42.680;23.260;2023-09-19T09:56:02;94895.22;;;23.75;84.62
12785;BME280;6456;42.680;23.260;2023-09-19T09:58:32;94882.44;;;23.67;83.53
12785;BME280;6456;42.680;23.260;2023-09-19T10:01:00;94888.09;;;23.66;85.29
12785;BME280;6456;42.680;23.260;2023-09-19T10:03:35;94882.31;;;23.77;84.65
12785;BME280;6456;42.680;23.260;2023-09-19T10:06:09;94885.03;;;23.96;83.71
12785;BME280;6456;42.680;23.260;2023-09-19T10:09:01;94853.97;;;23.66;84.31
12785;BME280;6456;42.680;23.260;2023-09-19T10:11:41;94823.53;;;23.52;84.75
12785;BME280;6456;42.680;23.260;2023-09-19T10:14:10;94834.09;;;23.67;84.47
12785;BME280;6456;42.680;23.260;2023-09-19T10:16:40;94877.13;;;24.04;83.62
12785;BME280;6456;42.680;23.260;2023-09-19T10:19:16;94882.88;;;24.16;83.04
12785;BME280;6456;42.680;23.260;2023-09-19T10:21:48;94881.38;;;24.05;85.67
12785;BME280;6456;42.680;23.260;2023-09-19T10:24:16;94869.31;;;24.03;83.41
12785;BME280;6456;42.680;23.260;2023-09-19T10:26:45;94860.03;;;23.95;82.11
12785;BME280;6456;42.680;23.260;2023-09-19T10:29:17;94883.06;;;24.01;83.08
12785;BME280;6456;42.680;23.260;2023-09-19T10:31:48;94863.66;;;23.86;84.09
12785;BME280;6456;42.680;23.260;2023-09-19T10:34:17;94833.81;;;23.87;83.33
12785;BME280;6456;42.680;23.260;2023-09-19T10:36:45;94847.59;;;23.81;82.16
12785;BME280;6456;42.680;23.260;2023-09-19T10:39:15;94876.88;;;24.01;83.34
12785;BME280;6456;42.680;23.260;2023-09-19T10:41:50;94875.75;;;24.07;83.44
12785;BME280;6456;42.680;23.260;2023-09-19T10:44:23;94866.59;;;24.08;82.02
12785;BME280;6456;42.680;23.260;2023-09-19T10:46:52;94850.25;;;24.04;82.09
12785;BME280;6456;42.680;23.260;2023-09-19T10:49:20;94852.63;;;24.06;82.49
12785;BME280;6456;42.680;23.260;2023-09-19T10:51:49;94856.50;;;24.18;82.31
12785;BME280;6456;42.680;23.260;2023-09-19T10:54:20;94852.28;;;24.12;80.94
12785;BME280;6456;42.680;23.260;2023-09-19T10:56:53;94810.56;;;23.96;81.46
12785;BME280;6456;42.680;23.260;2023-09-19T10:59:24;94862.38;;;24.39;80.09
12785;BME280;6456;42.680;23.260;2023-09-19T11:02:16;94785.78;;;24.18;79.24
12785;BME280;6456;42.680;23.260;2023-09-19T11:04:44;94847.41;;;24.65;79.70
12785;BME280;6456;42.680;23.260;2023-09-19T11:07:14;94831.00;;;24.67;79.20
12785;BME280;6456;42.680;23.260;2023-09-19T11:09:48;94818.22;;;24.59;78.14
12785;BME280;6456;42.680;23.260;2023-09-19T11:12:49;94851.72;;;24.85;78.34
12785;BME280;6456;42.680;23.260;2023-09-19T11:18:53;94846.03;;;24.68;78.25
12785;BME280;6456;42.680;23.260;2023-09-19T11:21:51;94845.63;;;24.61;78.53
12785;BME280;6456;42.680;23.260;2023-09-19T11:24:37;94836.88;;;24.69;79.40
12785;BME280;6456;42.680;23.260;2023-09-19T11:27:15;94840.06;;;24.71;78.51
12785;BME280;6456;42.680;23.260;2023-09-19T11:29:43;94814.78;;;24.72;78.46
12785;BME280;6456;42.680;23.260;2023-09-19T11:32:10;94828.00;;;24.87;77.59
12785;BME280;6456;42.680;23.260;2023-09-19T11:34:45;94790.34;;;24.68;76.83
12785;BME280;6456;42.680;23.260;2023-09-19T11:40:44;94800.66;;;24.80;78.23
12785;BME280;6456;42.680;23.260;2023-09-19T11:43:30;94800.94;;;24.78;77.21
12785;BME280;6456;42.680;23.260;2023-09-19T11:46:06;94803.28;;;24.66;78.48
12785;BME280;6456;42.680;23.260;2023-09-19T11:48:38;94796.94;;;24.76;78.21
12785;BME280;6456;42.680;23.260;2023-09-19T11:51:19;94779.38;;;24.65;78.63
12785;BME280;6456;42.680;23.260;2023-09-19T11:53:48;94790.75;;;24.75;79.44
12785;BME280;6456;42.680;23.260;2023-09-19T11:56:17;94759.78;;;24.32;78.94
12785;BME280;6456;42.680;23.260;2023-09-19T11:58:44;94795.72;;;24.68;78.25
12785;BME280;6456;42.680;23.260;2023-09-19T12:01:23;94791.34;;;24.72;78.16
12785;BME280;6456;42.680;23.260;2023-09-19T12:03:55;94722.94;;;24.46;79.19
12785;BME280;6456;42.680;23.260;2023-09-19T12:06:56;94777.56;;;24.93;79.56
12785;BME280;6456;42.680;23.260;2023-09-19T12:09:27;94747.75;;;24.89;79.72
12785;BME280;6456;42.680;23.260;2023-09-19T12:11:57;94737.47;;;24.91;79.85
12785;BME280;6456;42.680;23.260;2023-09-19T12:14:25;94750.44;;;25.16;78.92
12785;BME280;6456;42.680;23.260;2023-09-19T12:16:54;94687.91;;;24.78;78.82
12785;BME280;6456;42.680;23.260;2023-09-19T12:19:22;94730.19;;;25.19;78.83
12785;BME280;6456;42.680;23.260;2023-09-19T12:22:01;94724.31;;;25.17;79.59
12785;BME280;6456;42.680;23.260;2023-09-19T12:24:30;94718.63;;;25.05;78.66
12785;BME280;6456;42.680;23.260;2023-09-19T12:27:01;94745.91;;;25.25;79.72
12785;BME280;6456;42.680;23.260;2023-09-19T12:29:41;94695.19;;;24.78;78.96
12785;BME280;6456;42.680;23.260;2023-09-19T12:32:14;94697.88;;;24.92;78.69
12785;BME280;6456;42.680;23.260;2023-09-19T12:34:54;94707.69;;;24.88;80.18
12785;BME280;6456;42.680;23.260;2023-09-19T12:37:26;94733.97;;;25.18;80.89
12785;BME280;6456;42.680;23.260;2023-09-19T12:40:04;94734.88;;;25.13;78.76
12785;BME280;6456;42.680;23.260;2023-09-19T12:42:42;94713.81;;;25.15;79.19
12785;BME280;6456;42.680;23.260;2023-09-19T12:45:11;94720.97;;;25.33;78.67
12785;BME280;6456;42.680;23.260;2023-09-19T12:48:20;94733.38;;;25.34;76.49
12785;BME280;6456;42.680;23.260;2023-09-19T12:51:06;94736.38;;;25.46;76.32
12785;BME280;6456;42.680;23.260;2023-09-19T12:53:37;94735.75;;;25.50;76.39
12785;BME280;6456;42.680;23.260;2023-09-19T12:56:06;94725.78;;;25.50;75.87
12785;BME280;6456;42.680;23.260;2023-09-19T12:58:36;94685.84;;;25.38;75.76
12785;BME280;6456;42.680;23.260;2023-09-19T13:01:14;94713.19;;;25.45;74.67
12785;BME280;6456;42.680;23.260;2023-09-19T13:03:41;94678.47;;;25.30;75.23
12785;BME280;6456;42.680;23.260;2023-09-19T13:06:08;94714.69;;;25.65;75.10
12785;BME280;6456;42.680;23.260;2023-09-19T13:08:41;94704.94;;;25.78;75.92
12785;BME280;6456;42.680;23.260;2023-09-19T13:11:10;94668.19;;;25.60;75.81
12785;BME280;6456;42.680;23.260;2023-09-19T13:13:41;94690.47;;;25.74;73.55
12785;BME280;6456;42.680;23.260;2023-09-19T13:16:10;94688.25;;;25.76;74.78